Time;durP1;ratioP1;P1;durP2;ratioP2;P2;SDS_P1;SDS_P2;PMS_P1;PMS_P2;Temp;Humidity;BMP_temperature;BMP_pressure;BME280_temperature;BME280_humidity;BME280_pressure;Samples;Min_cycle;Max_cycle;Signal;HPM_P1;HPM_P2
2021/06/28 00:00:59;;;;;;;9.30;7.63;;;21.80;99.90;;;;;;5095283;28;20457;-82
2021/06/28 00:03:25;;;;;;;8.10;7.30;;;21.70;99.90;;;;;;5093808;28;20401;-83
2021/06/28 00:05:51;;;;;;;6.93;6.30;;;21.70;99.90;;;;;;5093991;28;20389;-83
2021/06/28 00:08:17;;;;;;;7.10;6.50;;;21.60;99.90;;;;;;5076419;28;20195;-83
2021/06/28 00:10:43;;;;;;;8.27;7.47;;;21.60;99.90;;;;;;5093943;28;20198;-82
2021/06/28 00:13:09;;;;;;;9.50;7.00;;;21.70;99.90;;;;;;5094120;28;20167;-83
2021/06/28 00:15:38;;;;;;;14.30;7.80;;;21.70;99.90;;;;;;5094328;28;20194;-83
2021/06/28 00:18:06;;;;;;;9.50;6.80;;;21.60;99.90;;;;;;5093628;28;20155;-83
2021/06/28 00:20:33;;;;;;;8.03;7.23;;;21.60;99.90;;;;;;5095152;28;20394;-82
2021/06/28 00:23:00;;;;;;;7.40;6.70;;;21.50;99.90;;;;;;5093646;28;20751;-82
2021/06/28 00:25:27;;;;;;;7.20;6.60;;;21.60;99.90;;;;;;5094145;28;20424;-81
2021/06/28 00:27:53;;;;;;;8.17;7.47;;;21.60;99.90;;;;;;5094246;28;20535;-83
2021/06/28 00:30:20;;;;;;;7.37;6.57;;;21.70;99.90;;;;;;5091144;28;20440;-84
2021/06/28 00:32:47;;;;;;;6.90;6.20;;;21.70;99.90;;;;;;5091542;28;20397;-81
2021/06/28 00:35:14;;;;;;;10.13;7.37;;;21.70;99.90;;;;;;5092219;28;20788;-83
2021/06/28 00:37:41;;;;;;;7.90;7.07;;;21.80;99.90;;;;;;5093158;28;20458;-83
2021/06/28 00:40:10;;;;;;;7.23;6.63;;;21.70;99.90;;;;;;5094046;28;20402;-83
2021/06/28 00:42:36;;;;;;;7.70;7.10;;;21.70;99.90;;;;;;5098994;28;20484;-82
2021/06/28 00:45:25;;;;;;;8.63;7.83;;;21.60;99.90;;;;;;5098005;28;20390;-85
2021/06/28 00:47:52;;;;;;;8.30;7.03;;;21.60;99.90;;;;;;5095133;28;20830;-83
2021/06/28 00:50:20;;;;;;;9.00;8.10;;;21.50;99.90;;;;;;5092925;28;20444;-83
2021/06/28 00:52:48;;;;;;;8.17;7.37;;;21.60;99.90;;;;;;5093696;28;20406;-83
2021/06/28 00:55:15;;;;;;;10.67;7.83;;;21.50;99.90;;;;;;5094159;28;20409;-82
2021/06/28 00:57:42;;;;;;;7.70;6.97;;;21.50;99.90;;;;;;5094300;28;20439;-83
2021/06/28 01:00:10;;;;;;;7.80;7.10;;;21.50;99.90;;;;;;5094361;28;20389;-84
2021/06/28 01:02:39;;;;;;;7.57;6.97;;;21.60;99.90;;;;;;5093555;28;20388;-84
2021/06/28 01:05:09;;;;;;;8.50;7.30;;;21.50;99.90;;;;;;5092256;28;20406;-82
2021/06/28 01:07:35;;;;;;;8.90;8.00;;;21.50;99.90;;;;;;5091484;28;20404;-81
2021/06/28 01:10:00;;;;;;;8.43;7.30;;;21.40;99.90;;;;;;5092263;28;20434;-83
2021/06/28 01:12:26;;;;;;;15.73;8.13;;;21.50;99.90;;;;;;5092095;28;20174;-83
2021/06/28 01:14:53;;;;;;;8.80;8.03;;;21.50;99.90;;;;;;5091073;28;20249;-86
2021/06/28 01:17:19;;;;;;;8.30;7.00;;;21.40;99.90;;;;;;5091068;28;20390;-83
2021/06/28 01:20:03;;;;;;;15.70;8.30;;;21.40;99.90;;;;;;5090891;28;20386;-83
2021/06/28 01:22:32;;;;;;;8.43;7.70;;;21.40;99.90;;;;;;5092091;28;20432;-82
2021/06/28 01:24:59;;;;;;;11.30;7.40;;;21.40;99.90;;;;;;5091832;28;20429;-82
2021/06/28 01:27:27;;;;;;;8.33;7.60;;;21.40;99.90;;;;;;5092119;28;20421;-85
2021/06/28 01:29:54;;;;;;;8.30;7.57;;;21.40;99.90;;;;;;5093637;28;20441;-82
2021/06/28 01:32:21;;;;;;;9.23;7.60;;;21.30;99.90;;;;;;5097094;28;20379;-82
2021/06/28 01:34:48;;;;;;;8.80;8.00;;;21.40;99.90;;;;;;5098020;28;20442;-84
2021/06/28 01:37:23;;;;;;;10.67;8.20;;;21.40;99.90;;;;;;5097785;28;20402;-82
2021/06/28 01:39:51;;;;;;;8.67;7.63;;;21.30;99.90;;;;;;5096329;28;20397;-83
2021/06/28 01:42:17;;;;;;;9.83;7.67;;;21.30;99.90;;;;;;5094666;28;20703;-82
2021/06/28 01:44:43;;;;;;;7.77;6.97;;;21.10;99.90;;;;;;5094533;28;20437;-82
2021/06/28 01:47:09;;;;;;;12.27;7.33;;;20.80;99.90;;;;;;5093241;28;20432;-83
2021/06/28 01:49:35;;;;;;;8.53;7.73;;;20.60;99.90;;;;;;5092277;28;20203;-82
2021/06/28 01:52:01;;;;;;;8.30;7.50;;;20.40;99.90;;;;;;5093242;28;20225;-82
2021/06/28 01:54:29;;;;;;;9.83;8.93;;;20.30;99.90;;;;;;5092799;28;20230;-83
2021/06/28 01:56:55;;;;;;;7.40;6.73;;;20.10;99.90;;;;;;5092438;28;20164;-83
2021/06/28 01:59:35;;;;;;;6.40;5.80;;;20.10;99.90;;;;;;5090801;28;20393;-81
2021/06/28 02:02:03;;;;;;;9.03;8.13;;;20.00;99.90;;;;;;5090766;28;20457;-83
2021/06/28 02:04:29;;;;;;;8.37;7.57;;;20.00;99.90;;;;;;5092072;28;20402;-83
2021/06/28 02:06:57;;;;;;;9.37;8.43;;;20.00;99.90;;;;;;5092004;28;20397;-82
2021/06/28 02:09:24;;;;;;;8.83;8.03;;;20.00;99.90;;;;;;5092453;28;20421;-83
2021/06/28 02:11:51;;;;;;;8.13;7.33;;;19.90;99.90;;;;;;5092039;28;20398;-83
2021/06/28 02:14:17;;;;;;;9.00;8.10;;;19.80;99.90;;;;;;5092913;28;20457;-82
2021/06/28 02:16:45;;;;;;;8.73;7.80;;;19.90;99.90;;;;;;5093340;28;20506;-82
2021/06/28 02:19:12;;;;;;;8.73;7.97;;;19.90;99.90;;;;;;5092675;28;20400;-82
2021/06/28 02:21:40;;;;;;;8.67;7.87;;;19.90;99.90;;;;;;5092982;28;20424;-82
2021/06/28 02:24:07;;;;;;;8.07;7.33;;;19.80;99.90;;;;;;5091535;28;20398;-82
2021/06/28 02:26:33;;;;;;;7.60;6.90;;;19.80;99.90;;;;;;5092814;28;20386;-82
2021/06/28 02:28:59;;;;;;;8.47;7.70;;;19.70;99.90;;;;;;5093133;28;20405;-84
2021/06/28 02:31:25;;;;;;;8.10;7.40;;;19.70;99.90;;;;;;5091653;28;20443;-82
2021/06/28 02:33:53;;;;;;;8.57;7.70;;;19.70;99.90;;;;;;5092430;28;20410;-82
2021/06/28 02:36:21;;;;;;;9.20;8.40;;;19.70;99.90;;;;;;5092289;28;20162;-83
2021/06/28 02:38:49;;;;;;;8.50;7.73;;;19.70;99.90;;;;;;5092394;28;20397;-82
2021/06/28 02:41:16;;;;;;;8.00;7.27;;;19.60;99.90;;;;;;5091879;28;20457;-82
2021/06/28 02:43:42;;;;;;;8.37;7.30;;;19.50;99.90;;;;;;5093129;28;20402;-82
2021/06/28 02:46:09;;;;;;;8.77;7.97;;;19.50;99.90;;;;;;5092829;28;20405;-82
2021/06/28 02:48:35;;;;;;;10.50;9.50;;;19.40;99.90;;;;;;5092942;28;20171;-82
2021/06/28 02:51:01;;;;;;;9.40;8.33;;;19.40;99.90;;;;;;5091864;28;20539;-82
2021/06/28 02:53:27;;;;;;;8.00;7.30;;;19.40;99.90;;;;;;5091136;28;20465;-82
2021/06/28 02:55:53;;;;;;;8.80;8.00;;;19.30;99.90;;;;;;5092332;28;20402;-82
2021/06/28 02:58:20;;;;;;;9.10;8.20;;;19.30;99.90;;;;;;5092271;28;20397;-82
2021/06/28 03:00:46;;;;;;;21.47;9.00;;;19.30;99.90;;;;;;5092164;28;20587;-82
2021/06/28 03:03:12;;;;;;;10.20;8.30;;;19.20;99.90;;;;;;5092251;28;20459;-82
2021/06/28 03:05:38;;;;;;;9.03;8.13;;;19.20;99.90;;;;;;5091438;28;20413;-83
2021/06/28 03:08:06;;;;;;;8.60;7.80;;;19.30;99.90;;;;;;5092113;28;20437;-82
2021/06/28 03:10:34;;;;;;;9.87;8.97;;;19.30;99.90;;;;;;5094591;28;20444;-82
2021/06/28 03:13:00;;;;;;;9.00;8.10;;;19.50;99.90;;;;;;5096209;28;20401;-82
2021/06/28 03:15:26;;;;;;;9.10;8.27;;;19.50;99.90;;;;;;5096059;28;20409;-82
2021/06/28 03:17:52;;;;;;;9.97;9.07;;;19.70;99.90;;;;;;5094641;28;20194;-82
2021/06/28 03:20:18;;;;;;;9.50;8.60;;;19.60;99.90;;;;;;5095238;28;20489;-82
2021/06/28 03:22:45;;;;;;;12.63;8.23;;;19.50;99.90;;;;;;5095303;28;20163;-82
2021/06/28 03:25:14;;;;;;;8.10;7.40;;;19.40;99.90;;;;;;5095508;28;20400;-83
2021/06/28 03:27:41;;;;;;;8.40;7.60;;;19.30;99.90;;;;;;5095855;28;20412;-82
2021/06/28 03:30:09;;;;;;;11.37;9.33;;;19.40;99.90;;;;;;5095370;28;20500;-84
2021/06/28 03:32:35;;;;;;;9.47;8.60;;;19.30;99.90;;;;;;5095532;28;20416;-82
2021/06/28 03:35:01;;;;;;;11.40;9.33;;;19.40;99.90;;;;;;5096245;28;20467;-82
2021/06/28 03:37:27;;;;;;;9.23;8.20;;;19.30;99.90;;;;;;5095971;28;20424;-82
2021/06/28 03:39:53;;;;;;;11.50;10.30;;;19.40;99.90;;;;;;5095712;28;20397;-82
2021/06/28 03:42:19;;;;;;;10.20;9.20;;;19.40;99.90;;;;;;5095508;28;20248;-83
2021/06/28 03:44:45;;;;;;;11.80;9.30;;;19.50;99.90;;;;;;5094915;28;20455;-82
2021/06/28 03:47:10;;;;;;;10.30;9.20;;;19.50;99.90;;;;;;5094693;28;20269;-83
2021/06/28 03:49:36;;;;;;;12.00;9.73;;;19.80;99.90;;;;;;5094106;28;20195;-85
2021/06/28 03:52:03;;;;;;;12.10;9.70;;;19.90;99.90;;;;;;5094802;28;20205;-83
2021/06/28 03:54:29;;;;;;;9.70;8.80;;;20.10;99.90;;;;;;5095010;28;20189;-82
2021/06/28 03:56:55;;;;;;;10.43;9.47;;;20.30;99.90;;;;;;5093832;28;20398;-82
2021/06/28 03:59:21;;;;;;;10.77;8.87;;;20.40;99.90;;;;;;5094575;28;20397;-83
2021/06/28 04:01:47;;;;;;;11.40;9.33;;;20.30;99.90;;;;;;5095374;28;20386;-83
2021/06/28 04:04:13;;;;;;;10.87;9.87;;;20.20;99.90;;;;;;5093739;28;20171;-82
2021/06/28 04:06:39;;;;;;;10.50;9.50;;;20.10;99.90;;;;;;5093718;28;20219;-83
2021/06/28 04:09:05;;;;;;;9.70;8.80;;;19.90;99.90;;;;;;5090139;28;20258;-84
2021/06/28 04:11:31;;;;;;;9.30;8.40;;;19.80;99.90;;;;;;5090328;28;20555;-83
2021/06/28 04:13:58;;;;;;;9.73;8.20;;;19.70;99.90;;;;;;5092937;28;20579;-83
2021/06/28 04:16:24;;;;;;;9.43;8.63;;;19.50;99.90;;;;;;5093778;28;20830;-83
2021/06/28 04:18:49;;;;;;;10.63;9.63;;;19.50;99.90;;;;;;5094433;28;20469;-83
2021/06/28 04:21:15;;;;;;;9.93;8.93;;;19.40;99.90;;;;;;5093235;28;20409;-82
2021/06/28 04:23:41;;;;;;;10.57;9.67;;;19.30;99.90;;;;;;5091328;28;20164;-82
2021/06/28 04:26:07;;;;;;;11.07;9.97;;;19.30;99.90;;;;;;5094287;28;20616;-83
2021/06/28 04:28:33;;;;;;;11.97;10.83;;;19.20;99.90;;;;;;5094166;28;20581;-82
2021/06/28 04:30:59;;;;;;;11.57;10.57;;;19.20;99.90;;;;;;5071857;28;20453;-82
2021/06/28 04:33:25;;;;;;;11.83;10.87;;;19.30;99.90;;;;;;5071896;28;20398;-82
2021/06/28 04:35:51;;;;;;;12.73;10.30;;;19.40;99.90;;;;;;5071499;28;20172;-83
2021/06/28 04:38:17;;;;;;;12.63;10.87;;;19.30;99.90;;;;;;5071914;28;20402;-83
2021/06/28 04:40:43;;;;;;;16.87;10.97;;;19.30;99.90;;;;;;5071962;28;20184;-82
2021/06/28 04:43:09;;;;;;;12.00;10.80;;;19.30;99.90;;;;;;5072855;28;20410;-82
2021/06/28 04:45:34;;;;;;;11.70;10.50;;;19.20;99.90;;;;;;5072690;28;20188;-81
2021/06/28 04:48:00;;;;;;;11.43;10.33;;;19.30;99.90;;;;;;5072465;28;20156;-81
2021/06/28 04:50:26;;;;;;;12.17;10.87;;;19.20;99.90;;;;;;5072209;28;20286;-81
2021/06/28 04:52:54;;;;;;;12.03;10.87;;;19.30;99.90;;;;;;5072159;28;20163;-82
2021/06/28 04:55:20;;;;;;;11.90;10.80;;;19.40;99.90;;;;;;5071050;28;20455;-82
2021/06/28 04:57:47;;;;;;;12.60;11.40;;;19.40;99.90;;;;;;5071516;28;20458;-81
2021/06/28 05:00:16;;;;;;;13.27;11.90;;;19.40;99.90;;;;;;5072187;28;20395;-81
2021/06/28 05:02:43;;;;;;;11.83;10.67;;;19.40;99.90;;;;;;5089125;28;20405;-81
2021/06/28 05:05:09;;;;;;;12.37;11.37;;;19.30;99.90;;;;;;5093192;28;20410;-83
2021/06/28 05:07:35;;;;;;;12.10;11.00;;;19.40;99.90;;;;;;5092558;28;20886;-81
2021/06/28 05:10:02;;;;;;;11.40;10.20;;;19.30;99.90;;;;;;5092970;28;20444;-83
2021/06/28 05:12:27;;;;;;;11.10;10.10;;;19.30;99.90;;;;;;5092794;28;20390;-82
2021/06/28 05:14:53;;;;;;;13.10;11.77;;;19.20;99.90;;;;;;5092308;28;20461;-82
2021/06/28 05:17:19;;;;;;;13.00;11.53;;;19.20;99.90;;;;;;5092959;28;20243;-81
2021/06/28 05:19:45;;;;;;;13.70;12.37;;;19.30;99.90;;;;;;5093347;28;20213;-83
2021/06/28 05:22:10;;;;;;;12.17;11.07;;;19.50;99.90;;;;;;5092228;28;20175;-83
2021/06/28 05:24:36;;;;;;;13.57;12.17;;;19.60;99.90;;;;;;5076369;28;20422;-84
2021/06/28 05:27:03;;;;;;;12.97;11.87;;;19.80;99.90;;;;;;5075318;28;20171;-83
2021/06/28 05:29:29;;;;;;;11.13;10.13;;;19.70;99.90;;;;;;5083509;28;20197;-84
2021/06/28 05:31:54;;;;;;;13.70;11.70;;;19.80;99.90;;;;;;5066121;28;20399;-83
2021/06/28 05:34:21;;;;;;;13.53;11.87;;;19.80;99.90;;;;;;5066391;28;20406;-83
2021/06/28 05:36:47;;;;;;;13.80;11.83;;;19.80;99.90;;;;;;5065847;28;20734;-84
2021/06/28 05:39:13;;;;;;;12.70;11.50;;;19.80;99.90;;;;;;5066926;28;20402;-84
2021/06/28 05:41:38;;;;;;;12.30;11.10;;;19.80;99.90;;;;;;5065605;28;20450;-85
2021/06/28 05:44:05;;;;;;;12.77;11.40;;;19.90;99.90;;;;;;5060972;28;20172;-84
2021/06/28 05:46:31;;;;;;;12.20;11.10;;;19.80;99.90;;;;;;5047214;28;20184;-84
2021/06/28 05:48:56;;;;;;;12.57;11.47;;;19.90;99.90;;;;;;5066354;28;20499;-82
2021/06/28 05:51:22;;;;;;;15.53;11.27;;;20.00;99.90;;;;;;5060764;28;20226;-83
2021/06/28 05:53:49;;;;;;;12.30;11.13;;;20.20;99.90;;;;;;5066653;28;20167;-83
2021/06/28 05:56:15;;;;;;;12.60;11.30;;;20.20;99.90;;;;;;5065966;28;20243;-84
2021/06/28 05:58:42;;;;;;;11.30;10.13;;;20.40;99.90;;;;;;5065286;28;20472;-83
2021/06/28 06:01:09;;;;;;;11.97;10.80;;;20.20;99.90;;;;;;5062345;28;20406;-84
2021/06/28 06:03:35;;;;;;;12.23;11.03;;;20.20;99.90;;;;;;5064800;28;20426;-81
2021/06/28 06:06:02;;;;;;;11.37;10.27;;;20.40;99.90;;;;;;5079301;28;20425;-84
2021/06/28 06:08:28;;;;;;;10.60;9.70;;;20.80;99.90;;;;;;5083750;28;20464;-84
2021/06/28 06:10:57;;;;;;;11.67;10.57;;;21.10;99.90;;;;;;5073543;28;20453;-83
2021/06/28 06:13:23;;;;;;;12.27;10.93;;;21.00;99.90;;;;;;5082009;28;20167;-83
2021/06/28 06:15:49;;;;;;;10.93;9.83;;;21.30;99.90;;;;;;5076794;28;20891;-83
2021/06/28 06:18:16;;;;;;;8.50;7.80;;;21.30;99.90;;;;;;5077525;28;20418;-83
2021/06/28 06:20:43;;;;;;;10.00;9.10;;;21.40;99.90;;;;;;5083661;28;20504;-81
2021/06/28 06:23:10;;;;;;;10.33;9.23;;;21.60;99.90;;;;;;5076151;28;20406;-81
2021/06/28 06:25:36;;;;;;;10.63;9.70;;;21.50;99.90;;;;;;5074039;28;20430;-80
2021/06/28 06:28:02;;;;;;;8.50;7.70;;;21.70;99.90;;;;;;5085458;28;20500;-81
2021/06/28 06:30:28;;;;;;;7.70;7.10;;;22.50;99.90;;;;;;5077043;28;20207;-81
2021/06/28 06:32:54;;;;;;;9.37;8.57;;;23.10;99.90;;;;;;5083394;28;20817;-81
2021/06/28 06:35:21;;;;;;;11.07;10.00;;;22.30;99.90;;;;;;5080251;28;20175;-81
2021/06/28 06:37:47;;;;;;;10.50;9.50;;;22.10;99.90;;;;;;5084499;28;20179;-81
2021/06/28 06:40:14;;;;;;;11.80;9.40;;;22.10;99.90;;;;;;5088390;28;20920;-81
2021/06/28 06:42:40;;;;;;;12.50;8.83;;;22.30;99.90;;;;;;5097677;28;20460;-81
2021/06/28 06:45:07;;;;;;;8.80;7.50;;;22.20;99.90;;;;;;5087208;28;20428;-81
2021/06/28 06:47:33;;;;;;;9.10;8.20;;;22.40;99.90;;;;;;5091720;28;20444;-79
2021/06/28 06:49:59;;;;;;;8.53;7.73;;;22.60;99.90;;;;;;5091484;28;20461;-82
2021/06/28 06:52:25;;;;;;;13.90;9.13;;;22.50;99.90;;;;;;5089264;28;20486;-82
2021/06/28 06:54:51;;;;;;;10.37;9.37;;;22.60;99.90;;;;;;5085551;28;20897;-81
2021/06/28 06:57:17;;;;;;;9.10;8.40;;;22.50;99.90;;;;;;5081450;28;20258;-81
2021/06/28 06:59:43;;;;;;;11.93;8.70;;;22.60;99.90;;;;;;5083491;28;20200;-82
2021/06/28 07:02:09;;;;;;;9.10;8.30;;;22.80;99.90;;;;;;5081654;28;20171;-82
2021/06/28 07:04:35;;;;;;;9.20;8.50;;;22.90;99.90;;;;;;5089575;28;20449;-82
2021/06/28 07:07:06;;;;;;;9.43;8.53;;;22.80;99.90;;;;;;5083390;28;20178;-82
2021/06/28 07:09:31;;;;;;;9.23;8.50;;;22.80;99.90;;;;;;5072211;28;20606;-81
2021/06/28 07:11:57;;;;;;;8.47;7.60;;;23.00;99.90;;;;;;5070267;28;20417;-82
2021/06/28 07:14:24;;;;;;;9.07;8.33;;;23.00;99.90;;;;;;5088338;28;20264;-82
2021/06/28 07:16:50;;;;;;;8.17;7.43;;;23.00;99.90;;;;;;5087246;28;20630;-82
2021/06/28 07:19:17;;;;;;;9.43;8.63;;;23.20;99.90;;;;;;5087824;28;20902;-82
2021/06/28 07:21:42;;;;;;;8.53;7.63;;;23.20;99.90;;;;;;5086870;28;20424;-82
2021/06/28 07:24:09;;;;;;;9.63;8.83;;;23.30;99.90;;;;;;5080664;28;20422;-81
2021/06/28 07:26:35;;;;;;;9.80;9.00;;;23.30;99.90;;;;;;5085016;28;20239;-81
2021/06/28 07:29:01;;;;;;;8.57;7.77;;;23.30;99.90;;;;;;5082496;28;20452;-81
2021/06/28 07:31:28;;;;;;;10.40;9.60;;;23.30;99.90;;;;;;5054565;28;20464;-81
2021/06/28 07:33:53;;;;;;;9.50;8.57;;;23.50;99.90;;;;;;5089141;28;20456;-82
2021/06/28 07:36:19;;;;;;;8.30;7.60;;;23.70;99.90;;;;;;5082939;28;20762;-81
2021/06/28 07:38:45;;;;;;;7.63;6.83;;;23.70;99.90;;;;;;5083556;28;20176;-81
2021/06/28 07:41:11;;;;;;;7.23;6.53;;;23.80;99.90;;;;;;5077407;28;20219;-81
2021/06/28 07:43:40;;;;;;;8.13;7.33;;;23.90;99.90;;;;;;5088362;28;20175;-80
2021/06/28 07:46:06;;;;;;;8.27;7.37;;;23.90;99.90;;;;;;5069195;28;20410;-81
2021/06/28 07:48:35;;;;;;;7.27;6.60;;;24.00;99.90;;;;;;5072309;28;20421;-81
2021/06/28 07:51:03;;;;;;;8.70;7.90;;;24.00;99.90;;;;;;5075797;28;20294;-81
2021/06/28 07:53:32;;;;;;;10.80;7.43;;;24.10;99.90;;;;;;5074077;28;20428;-81
2021/06/28 07:56:13;;;;;;;7.47;6.77;;;24.20;99.90;;;;;;5078329;28;20513;-82
2021/06/28 07:58:40;;;;;;;7.00;6.30;;;24.30;99.90;;;;;;5072334;28;20469;-80
2021/06/28 08:01:06;;;;;;;6.70;6.10;;;24.40;99.90;;;;;;5054611;28;20422;-81
2021/06/28 08:03:32;;;;;;;7.73;6.77;;;24.40;99.90;;;;;;5087979;28;20414;-82
2021/06/28 08:05:58;;;;;;;7.57;6.87;;;24.50;99.90;;;;;;5071958;28;20184;-81
2021/06/28 08:08:23;;;;;;;7.47;6.87;;;24.50;99.90;;;;;;5081239;28;20283;-81
2021/06/28 08:10:49;;;;;;;8.10;7.40;;;24.60;99.90;;;;;;5070176;28;20251;-81
2021/06/28 08:13:15;;;;;;;7.77;7.07;;;24.60;99.90;;;;;;5084102;28;20167;-81
2021/06/28 08:15:41;;;;;;;7.13;6.43;;;24.70;99.90;;;;;;5088510;28;20239;-80
2021/06/28 08:18:07;;;;;;;7.00;6.40;;;24.90;99.90;;;;;;5089185;28;20441;-81
2021/06/28 08:20:37;;;;;;;6.40;5.90;;;24.90;99.90;;;;;;5088970;28;20167;-81
2021/06/28 08:23:06;;;;;;;7.37;6.47;;;24.90;99.90;;;;;;5067517;28;20156;-80
2021/06/28 08:25:32;;;;;;;7.73;7.03;;;25.00;99.90;;;;;;5066580;28;20415;-81
2021/06/28 08:27:57;;;;;;;7.20;6.50;;;25.10;99.90;;;;;;5081271;28;20935;-82
2021/06/28 08:30:23;;;;;;;7.47;6.77;;;25.20;99.90;;;;;;5086424;28;20206;-81
2021/06/28 08:32:49;;;;;;;7.93;6.50;;;25.30;99.90;;;;;;5076501;28;20167;-82
2021/06/28 08:35:15;;;;;;;11.90;7.63;;;25.30;99.90;;;;;;5086477;28;20178;-81
2021/06/28 08:37:43;;;;;;;8.20;6.87;;;25.30;99.90;;;;;;5086210;28;20217;-81
2021/06/28 08:40:11;;;;;;;7.37;6.77;;;25.30;99.90;;;;;;5086021;28;20214;-82
2021/06/28 08:42:39;;;;;;;8.23;7.53;;;25.30;99.90;;;;;;5081692;28;20476;-79
2021/06/28 08:45:05;;;;;;;7.10;6.47;;;25.40;99.90;;;;;;5086907;28;20421;-82
2021/06/28 08:47:34;;;;;;;7.13;6.43;;;25.60;99.90;;;;;;5081114;28;20433;-83
2021/06/28 08:50:02;;;;;;;6.90;6.40;;;25.60;99.90;;;;;;5038179;28;20473;-84
2021/06/28 08:52:30;;;;;;;7.50;6.90;;;25.70;99.90;;;;;;5025237;28;20412;-81
2021/06/28 08:54:56;;;;;;;7.57;6.40;;;25.70;99.90;;;;;;5025095;28;20423;-82
2021/06/28 08:57:22;;;;;;;6.37;5.77;;;25.70;99.90;;;;;;5012750;28;20451;-81
2021/06/28 08:59:49;;;;;;;7.53;6.80;;;25.70;99.90;;;;;;5041019;28;20434;-82
2021/06/28 09:02:14;;;;;;;7.30;6.77;;;25.70;99.90;;;;;;5016051;28;20197;-83
2021/06/28 09:04:59;;;;;;;7.50;6.47;;;25.90;99.90;;;;;;5024758;28;20420;-83
2021/06/28 09:07:24;;;;;;;7.13;6.50;;;26.00;99.90;;;;;;5033068;28;20199;-85
2021/06/28 09:09:50;;;;;;;5.40;5.00;;;26.00;99.90;;;;;;5023668;28;20479;-83
2021/06/28 09:12:17;;;;;;;6.13;5.23;;;26.00;99.90;;;;;;5020438;28;20535;-81
2021/06/28 09:14:56;;;;;;;6.10;5.50;;;26.10;99.90;;;;;;5029215;28;20180;-86
2021/06/28 09:17:27;;;;;;;7.00;6.30;;;26.00;99.90;;;;;;5041004;28;20481;-83
2021/06/28 09:20:12;;;;;;;6.30;5.80;;;26.00;99.90;;;;;;5044158;28;20445;-80
2021/06/28 09:22:39;;;;;;;6.60;6.03;;;26.10;99.90;;;;;;5046833;28;20461;-80
2021/06/28 09:25:07;;;;;;;6.40;5.80;;;26.10;99.90;;;;;;5046743;28;20425;-83
2021/06/28 09:27:42;;;;;;;6.53;5.93;;;26.20;99.90;;;;;;5070266;28;20446;-83
2021/06/28 09:30:20;;;;;;;6.80;6.20;;;26.30;99.90;;;;;;5054989;28;20475;-83
2021/06/28 09:33:01;;;;;;;6.53;5.93;;;26.50;99.90;;;;;;5067709;28;20460;-80
2021/06/28 09:35:36;;;;;;;8.40;4.80;;;26.70;99.90;;;;;;5052568;28;20411;-82
2021/06/28 09:38:07;;;;;;;5.77;5.20;;;26.70;99.90;;;;;;5052031;28;20994;-83
2021/06/28 09:40:35;;;;;;;6.20;5.70;;;26.50;99.90;;;;;;5050897;28;20411;-79
2021/06/28 09:43:20;;;;;;;5.70;4.50;;;26.80;99.90;;;;;;5043441;28;20470;-79
2021/06/28 09:45:47;;;;;;;6.40;5.90;;;27.00;99.90;;;;;;5053494;28;20407;-82
2021/06/28 09:48:27;;;;;;;6.10;5.60;;;27.00;99.90;;;;;;5070555;28;20461;-81
2021/06/28 09:51:16;;;;;;;5.90;5.40;;;27.10;99.90;;;;;;5078536;28;20484;-83
2021/06/28 09:53:42;;;;;;;6.27;5.67;;;27.20;99.90;;;;;;5079678;28;20421;-85
2021/06/28 09:56:33;;;;;;;5.30;4.90;;;27.20;99.90;;;;;;5082401;28;20593;-84
2021/06/28 09:59:37;;;;;;;6.10;5.60;;;27.40;99.90;;;;;;5065525;28;20496;-82
2021/06/28 10:02:20;;;;;;;5.63;5.23;;;27.40;99.90;;;;;;5069673;28;20435;-82
2021/06/28 10:04:56;;;;;;;7.33;6.50;;;27.50;99.90;;;;;;5070844;28;20453;-83
2021/06/28 10:07:39;;;;;;;5.13;4.73;;;27.60;99.90;;;;;;5074399;28;20416;-81
2021/06/28 10:10:14;;;;;;;5.67;5.13;;;27.80;99.90;;;;;;5080684;28;20455;-83
2021/06/28 10:12:46;;;;;;;4.73;4.43;;;27.70;99.90;;;;;;5082650;28;20427;-83
2021/06/28 10:15:15;;;;;;;5.53;5.03;;;27.80;99.90;;;;;;5082608;28;20425;-84
2021/06/28 10:17:41;;;;;;;6.10;5.30;;;27.90;99.90;;;;;;5080349;28;20421;-83
2021/06/28 10:20:10;;;;;;;5.50;5.00;;;28.00;99.90;;;;;;5081969;28;20967;-83
2021/06/28 10:22:38;;;;;;;5.13;4.67;;;27.90;99.90;;;;;;5083021;28;20485;-83
2021/06/28 10:25:05;;;;;;;5.77;5.37;;;28.00;99.90;;;;;;5082586;28;20488;-81
2021/06/28 10:27:32;;;;;;;5.33;4.83;;;27.90;99.90;;;;;;5083512;28;20413;-82
2021/06/28 10:29:58;;;;;;;6.30;5.73;;;28.30;99.90;;;;;;5081991;28;20772;-83
2021/06/28 10:32:28;;;;;;;6.50;5.43;;;28.30;99.90;;;;;;5063042;28;20425;-83
2021/06/28 10:34:54;;;;;;;5.90;4.93;;;28.40;99.90;;;;;;5070172;28;20206;-83
2021/06/28 10:37:42;;;;;;;5.23;4.80;;;28.70;99.90;;;;;;5050347;28;20791;-83
2021/06/28 10:40:12;;;;;;;5.90;5.40;;;28.60;99.90;;;;;;5057531;28;20423;-83
2021/06/28 10:42:42;;;;;;;5.50;5.10;;;28.50;99.90;;;;;;5060716;28;20470;-82
2021/06/28 10:45:10;;;;;;;5.83;5.40;;;28.50;99.90;;;;;;5067501;28;20418;-81
2021/06/28 10:47:37;;;;;;;6.40;5.90;;;28.60;99.90;;;;;;5070665;28;20425;-83
2021/06/28 10:50:05;;;;;;;5.63;5.23;;;28.60;99.90;;;;;;5067590;28;20460;-82
2021/06/28 10:52:47;;;;;;;6.40;5.87;;;28.60;99.90;;;;;;5048305;28;20428;-82
2021/06/28 10:55:36;;;;;;;5.57;5.07;;;28.50;99.90;;;;;;5048004;28;20418;-83
2021/06/28 10:58:23;;;;;;;6.43;5.17;;;28.60;99.90;;;;;;5049761;28;20426;-82
2021/06/28 11:01:00;;;;;;;6.30;5.67;;;28.70;99.90;;;;;;5064325;28;20807;-83
2021/06/28 11:03:30;;;;;;;6.33;5.83;;;29.20;99.90;;;;;;5039527;28;20418;-83
2021/06/28 11:06:21;;;;;;;5.73;5.33;;;29.50;99.90;;;;;;5029321;28;20833;-82
2021/06/28 11:09:05;;;;;;;6.23;5.70;;;29.20;99.90;;;;;;5027890;28;20451;-83
2021/06/28 11:11:55;;;;;;;5.70;5.30;;;28.90;99.90;;;;;;5033089;28;20446;-83
2021/06/28 11:14:37;;;;;;;5.97;5.57;;;29.60;99.90;;;;;;5036680;28;20806;-83
2021/06/28 11:17:07;;;;;;;5.70;4.80;;;29.60;99.90;;;;;;5036590;28;20422;-83
2021/06/28 11:19:53;;;;;;;6.40;5.90;;;29.70;99.90;;;;;;5018553;28;20423;-82
2021/06/28 11:22:51;;;;;;;5.00;4.60;;;29.60;99.90;;;;;;5045257;28;20411;-81
2021/06/28 11:25:22;;;;;;;5.53;5.07;;;29.70;99.90;;;;;;5047414;28;20411;-81
2021/06/28 11:28:10;;;;;;;5.50;5.10;;;29.80;99.90;;;;;;5048430;28;20379;-81
2021/06/28 11:30:47;;;;;;;5.73;5.23;;;29.20;99.90;;;;;;5047164;28;20454;-82
2021/06/28 11:33:14;;;;;;;6.73;5.80;;;29.40;99.90;;;;;;5051101;28;20406;-81
2021/06/28 11:35:49;;;;;;;5.33;5.00;;;29.70;99.90;;;;;;5043802;28;20408;-81
2021/06/28 11:38:24;;;;;;;5.20;4.80;;;29.60;99.90;;;;;;5032850;28;20414;-82
2021/06/28 11:40:54;;;;;;;6.80;5.47;;;29.80;99.90;;;;;;5045007;28;20456;-82
2021/06/28 11:43:41;;;;;;;5.67;4.63;;;29.50;99.90;;;;;;5091286;28;20432;-81
2021/06/28 11:46:25;;;;;;;5.37;4.97;;;29.40;99.90;;;;;;5086934;28;20449;-81
2021/06/28 11:49:04;;;;;;;5.47;5.07;;;29.10;99.90;;;;;;5070756;28;20470;-81
2021/06/28 11:51:51;;;;;;;5.10;4.70;;;29.30;99.90;;;;;;5088763;28;20482;-81
2021/06/28 11:54:20;;;;;;;6.23;5.73;;;29.30;99.90;;;;;;5090329;28;20420;-81
2021/06/28 11:56:49;;;;;;;6.07;5.53;;;29.40;99.90;;;;;;5090164;28;20439;-81
2021/06/28 11:59:17;;;;;;;6.03;5.43;;;29.40;99.90;;;;;;5090789;28;20423;-82
2021/06/28 12:01:55;;;;;;;5.17;4.77;;;29.50;99.90;;;;;;5090313;28;20405;-81
2021/06/28 12:04:26;;;;;;;6.17;5.27;;;29.40;99.90;;;;;;5091361;28;20401;-81
2021/06/28 12:06:54;;;;;;;5.20;4.70;;;29.40;99.90;;;;;;5088525;28;20393;-83
2021/06/28 12:09:22;;;;;;;5.03;4.63;;;29.40;99.90;;;;;;5088262;28;20429;-82
2021/06/28 12:11:53;;;;;;;4.53;4.20;;;29.50;99.90;;;;;;5087906;28;20447;-82
2021/06/28 12:14:41;;;;;;;7.63;5.10;;;29.50;99.90;;;;;;5088146;28;20390;-83
2021/06/28 12:17:12;;;;;;;5.07;4.67;;;29.80;99.90;;;;;;5090257;28;20389;-82
2021/06/28 12:19:41;;;;;;;5.50;5.10;;;29.90;99.90;;;;;;5090118;28;20393;-82
2021/06/28 12:22:13;;;;;;;5.93;5.53;;;29.80;99.90;;;;;;5088998;28;20401;-82
2021/06/28 12:24:40;;;;;;;6.23;5.80;;;29.90;99.90;;;;;;5088124;28;20393;-82
2021/06/28 12:27:10;;;;;;;6.00;4.87;;;30.20;99.90;;;;;;5071063;28;20425;-81
2021/06/28 12:29:38;;;;;;;5.10;4.60;;;30.20;99.90;;;;;;5085761;28;20808;-82
2021/06/28 12:32:10;;;;;;;6.10;5.50;;;30.50;99.90;;;;;;5086846;28;20398;-81
2021/06/28 12:34:40;;;;;;;13.50;4.93;;;30.50;99.90;;;;;;5087274;28;20377;-81
2021/06/28 12:37:07;;;;;;;5.80;5.18;;;30.60;99.90;;;;;;5085667;28;20182;-84
2021/06/28 12:39:33;;;;;;;6.53;5.53;;;30.60;99.90;;;;;;5088837;28;20217;-80
2021/06/28 12:42:18;;;;;;;6.18;5.78;;;31.10;99.90;;;;;;5088506;28;20230;-83
2021/06/28 12:44:45;;;;;;;4.70;4.15;;;30.80;99.90;;;;;;5089146;28;20174;-83
2021/06/28 12:47:16;;;;;;;4.80;4.50;;;31.40;99.90;;;;;;5088492;28;20187;-83
2021/06/28 12:49:43;;;;;;;4.82;4.45;;;31.00;99.90;;;;;;5090695;28;20174;-83
2021/06/28 12:52:23;;;;;;;4.78;4.47;;;30.90;99.90;;;;;;5087309;28;20241;-82